Time;durP1;ratioP1;P1;durP2;ratioP2;P2;SDS_P1;SDS_P2;PMS_P1;PMS_P2;Temp;Humidity;BMP_temperature;BMP_pressure;BME280_temperature;BME280_humidity;BME280_pressure;Samples;Min_cycle;Max_cycle;Signal;HPM_P1;HPM_P2
2023/02/15 00:01:52;;;;;;;76.95;30.75;;;1.70;99.90;;;;;;7372438;19;20041;-63
2023/02/15 00:04:23;;;;;;;130.75;35.72;;;1.60;99.90;;;;;;7378775;19;20045;-63
2023/02/15 00:06:49;;;;;;;113.13;36.03;;;1.50;99.90;;;;;;7375929;19;20017;-63
2023/02/15 00:09:16;;;;;;;172.63;37.78;;;1.40;99.90;;;;;;7377449;19;20039;-63
2023/02/15 00:11:44;;;;;;;49.33;31.48;;;1.40;99.90;;;;;;7382103;19;20014;-63
2023/02/15 00:14:20;;;;;;;89.32;33.00;;;1.30;99.90;;;;;;7380435;19;20026;-63
2023/02/15 00:16:54;;;;;;;81.18;34.92;;;1.30;99.90;;;;;;7381104;19;20018;-63
2023/02/15 00:19:21;;;;;;;38.40;30.23;;;1.40;99.90;;;;;;7381748;19;20059;-63
2023/02/15 00:21:48;;;;;;;39.30;30.52;;;1.30;99.90;;;;;;7380110;19;20022;-63
2023/02/15 00:24:18;;;;;;;39.47;30.20;;;1.30;99.90;;;;;;7378569;19;20787;-63
2023/02/15 00:26:46;;;;;;;39.38;30.67;;;1.30;99.90;;;;;;7375704;19;20465;-63
2023/02/15 00:29:14;;;;;;;40.42;29.25;;;1.40;99.90;;;;;;7377389;19;20037;-63
2023/02/15 00:31:41;;;;;;;37.67;29.92;;;1.30;99.90;;;;;;7375508;19;20022;-63
2023/02/15 00:34:21;;;;;;;36.30;30.83;;;1.40;99.90;;;;;;7374791;19;20030;-63
2023/02/15 00:36:48;;;;;;;38.15;29.85;;;1.40;99.90;;;;;;7379859;19;20023;-63
2023/02/15 00:39:15;;;;;;;36.38;30.25;;;1.40;99.90;;;;;;7378235;19;20018;-63
2023/02/15 00:41:42;;;;;;;40.47;31.73;;;1.50;99.90;;;;;;7381297;19;20492;-62
2023/02/15 00:44:09;;;;;;;41.78;30.25;;;1.50;99.90;;;;;;7379506;19;20034;-62
2023/02/15 00:46:35;;;;;;;40.22;30.98;;;1.50;99.90;;;;;;7377701;19;20053;-63
2023/02/15 00:49:04;;;;;;;38.95;30.58;;;1.50;99.90;;;;;;7376977;19;20014;-63
2023/02/15 00:51:32;;;;;;;39.63;30.88;;;1.50;99.90;;;;;;7374982;19;20018;-63
2023/02/15 00:54:01;;;;;;;36.08;28.67;;;1.50;99.90;;;;;;7377369;19;20028;-63
2023/02/15 00:56:29;;;;;;;43.27;31.93;;;1.50;99.90;;;;;;7378042;19;20018;-63
2023/02/15 00:58:55;;;;;;;48.92;34.55;;;1.60;99.90;;;;;;7376526;19;20299;-63
2023/02/15 01:01:23;;;;;;;41.35;31.65;;;1.50;99.90;;;;;;7377045;19;20022;-63
2023/02/15 01:03:57;;;;;;;45.90;33.80;;;1.50;99.90;;;;;;7371614;19;20019;-63
2023/02/15 01:06:23;;;;;;;48.03;34.97;;;1.50;99.90;;;;;;7371936;19;20033;-63
2023/02/15 01:08:50;;;;;;;46.30;34.63;;;1.50;99.90;;;;;;7369323;19;21525;-63
2023/02/15 01:11:23;;;;;;;47.67;34.38;;;1.50;99.90;;;;;;7375428;19;20402;-63
2023/02/15 01:13:56;;;;;;;44.85;33.58;;;1.50;99.90;;;;;;7377110;19;20014;-63
2023/02/15 01:16:25;;;;;;;54.78;37.92;;;1.40;99.90;;;;;;7379669;19;20023;-63
2023/02/15 01:18:51;;;;;;;50.90;35.88;;;1.40;99.90;;;;;;7377086;19;20755;-62
2023/02/15 01:21:21;;;;;;;45.97;33.08;;;1.40;99.90;;;;;;7374475;19;20437;-63
2023/02/15 01:23:48;;;;;;;54.92;32.38;;;1.40;99.90;;;;;;7370198;19;20097;-63
2023/02/15 01:26:17;;;;;;;89.32;32.50;;;1.20;99.90;;;;;;7375412;19;20014;-63
2023/02/15 01:28:45;;;;;;;203.68;41.80;;;1.10;99.90;;;;;;7376077;19;20043;-62
2023/02/15 01:31:14;;;;;;;229.32;44.78;;;1.10;99.90;;;;;;7375388;19;20377;-63
2023/02/15 01:33:41;;;;;;;102.57;36.97;;;1.00;99.90;;;;;;7378211;19;20369;-63
2023/02/15 01:36:10;;;;;;;121.28;41.72;;;0.90;99.90;;;;;;7377669;19;20036;-63
2023/02/15 01:38:36;;;;;;;102.28;40.78;;;1.00;99.90;;;;;;7377312;19;20015;-63
2023/02/15 01:41:25;;;;;;;67.80;41.33;;;0.90;99.90;;;;;;7376195;19;20415;-63
2023/02/15 01:44:23;;;;;;;116.93;41.50;;;0.90;99.90;;;;;;7371258;19;20743;-64
2023/02/15 01:46:57;;;;;;;128.35;46.78;;;0.90;99.90;;;;;;7372565;19;20472;-64
2023/02/15 01:49:27;;;;;;;120.72;48.83;;;1.00;99.90;;;;;;7372636;19;20407;-65
2023/02/15 01:52:02;;;;;;;93.28;47.15;;;0.90;99.90;;;;;;7372143;19;20034;-63
2023/02/15 01:54:33;;;;;;;75.97;47.10;;;0.90;99.90;;;;;;7369246;19;20018;-64
2023/02/15 01:57:04;;;;;;;67.63;43.33;;;0.90;99.90;;;;;;7378521;19;20022;-64
2023/02/15 01:59:36;;;;;;;98.70;47.00;;;0.90;99.90;;;;;;7374149;19;20038;-63
2023/02/15 02:02:05;;;;;;;126.47;49.50;;;1.00;99.90;;;;;;7376060;19;20018;-64
2023/02/15 02:04:52;;;;;;;141.25;47.83;;;1.00;99.90;;;;;;7373385;19;20029;-64
2023/02/15 02:07:26;;;;;;;120.70;48.53;;;1.00;99.90;;;;;;7372258;19;20014;-64
2023/02/15 02:09:53;;;;;;;112.35;48.42;;;0.90;99.90;;;;;;7367943;19;20023;-64
2023/02/15 02:12:25;;;;;;;83.68;45.53;;;0.90;99.90;;;;;;7369793;19;20025;-64
2023/02/15 02:14:52;;;;;;;64.78;42.15;;;1.00;99.90;;;;;;7364949;19;20051;-64
2023/02/15 02:17:43;;;;;;;184.80;49.63;;;0.90;99.90;;;;;;7366311;19;20021;-63
2023/02/15 02:20:28;;;;;;;130.02;46.63;;;0.90;99.90;;;;;;7369190;19;20018;-62
2023/02/15 02:23:32;;;;;;;333.13;65.65;;;0.90;99.90;;;;;;7367184;19;20022;-63
2023/02/15 02:26:30;;;;;;;195.02;53.35;;;0.90;99.90;;;;;;7372109;19;20014;-63
2023/02/15 02:29:35;;;;;;;206.27;53.72;;;0.90;99.90;;;;;;7375708;19;20041;-63
2023/02/15 02:32:26;;;;;;;133.85;50.97;;;0.90;99.90;;;;;;7370651;19;20032;-63
2023/02/15 02:35:17;;;;;;;268.10;57.60;;;0.90;99.90;;;;;;7368342;19;20572;-62
2023/02/15 02:37:49;;;;;;;181.70;55.95;;;0.90;99.90;;;;;;7374398;19;20037;-63
2023/02/15 02:40:27;;;;;;;239.35;58.20;;;0.90;99.90;;;;;;7377939;19;20014;-62
2023/02/15 02:43:10;;;;;;;266.45;59.55;;;0.80;99.90;;;;;;7383977;19;20425;-62
2023/02/15 02:45:49;;;;;;;380.40;65.57;;;0.80;99.90;;;;;;7382488;19;20033;-63
2023/02/15 02:48:20;;;;;;;;;;;0.90;99.90;;;;;;7384091;19;20612;-63
2023/02/15 02:50:49;;;;;;;317.67;65.25;;;0.90;99.90;;;;;;7381958;19;19925;-64
2023/02/15 02:53:16;;;;;;;298.38;62.05;;;0.80;99.90;;;;;;7381619;19;20015;-64
2023/02/15 02:56:09;;;;;;;412.08;73.85;;;0.80;99.90;;;;;;7380869;19;20421;-63
2023/02/15 02:58:39;;;;;;;;;;;0.70;99.90;;;;;;7384615;19;20022;-63
2023/02/15 03:01:24;;;;;;;288.02;53.55;;;0.60;99.90;;;;;;7383919;19;19919;-63
2023/02/15 03:03:57;;;;;;;240.52;48.42;;;0.60;99.90;;;;;;7380241;19;20024;-62
2023/02/15 03:06:39;;;;;;;219.45;47.40;;;0.50;99.90;;;;;;7376944;19;20057;-62
2023/02/15 03:09:22;;;;;;;246.77;50.17;;;0.40;99.90;;;;;;7378839;19;20022;-62
2023/02/15 03:11:50;;;;;;;229.43;47.05;;;0.40;99.90;;;;;;7372126;19;20023;-62
2023/02/15 03:14:18;;;;;;;248.93;50.20;;;0.40;99.90;;;;;;7368303;19;20524;-62
2023/02/15 03:16:48;;;;;;;266.30;48.13;;;0.40;99.90;;;;;;7366918;19;20027;-62
2023/02/15 03:19:22;;;;;;;239.13;47.20;;;0.40;99.90;;;;;;7370842;19;20472;-62
2023/02/15 03:21:57;;;;;;;203.10;46.38;;;0.30;99.90;;;;;;7372553;19;20021;-62
2023/02/15 03:24:28;;;;;;;200.52;44.75;;;0.40;99.90;;;;;;7370812;19;20018;-62
2023/02/15 03:26:56;;;;;;;309.15;55.90;;;0.40;99.90;;;;;;7372458;19;20022;-62
2023/02/15 03:29:27;;;;;;;252.82;48.83;;;0.40;99.90;;;;;;7370811;19;20509;-62
2023/02/15 03:32:00;;;;;;;259.08;52.30;;;0.30;99.90;;;;;;7372130;19;20025;-62
2023/02/15 03:34:26;;;;;;;200.80;48.47;;;0.40;99.90;;;;;;7379261;19;20787;-63
2023/02/15 03:37:11;;;;;;;192.55;48.55;;;0.40;99.90;;;;;;7380162;19;20735;-62
2023/02/15 03:39:41;;;;;;;435.42;71.60;;;0.50;99.90;;;;;;7382503;19;20022;-62
2023/02/15 03:42:10;;;;;;;278.77;52.20;;;0.40;99.90;;;;;;7382969;19;20011;-62
2023/02/15 03:44:45;;;;;;;297.05;56.03;;;0.50;99.90;;;;;;7380494;19;20390;-62
2023/02/15 03:47:19;;;;;;;462.10;72.97;;;0.60;99.90;;;;;;7381286;19;20014;-62
2023/02/15 03:53:07;;;;;;;337.48;59.45;;;0.60;99.90;;;;;;7379729;19;20025;-62
2023/02/15 03:55:34;;;;;;;309.42;59.42;;;0.50;99.90;;;;;;7380710;19;20014;-62
2023/02/15 04:04:00;;;;;;;295.60;52.65;;;0.50;99.90;;;;;;7371831;19;20022;-62
2023/02/15 04:06:27;;;;;;;279.02;51.38;;;0.40;99.90;;;;;;7370009;19;20026;-63
2023/02/15 04:11:38;;;;;;;254.85;48.17;;;0.40;99.90;;;;;;7367770;19;20111;-62
2023/02/15 04:16:02;;;;;;;219.07;44.75;;;0.30;99.90;;;;;;7370652;19;20049;-63
2023/02/15 04:16:50;;;;;;;233.93;45.78;;;0.40;99.90;;;;;;7368849;19;20011;-62
2023/02/15 04:27:35;;;;;;;214.68;47.13;;;0.40;99.90;;;;;;7371743;19;20025;-62
2023/02/15 04:30:05;;;;;;;217.15;47.33;;;0.40;99.90;;;;;;7378504;19;20021;-63
2023/02/15 04:32:31;;;;;;;240.23;52.58;;;0.40;99.90;;;;;;7377119;19;20023;-62
2023/02/15 04:34:58;;;;;;;298.45;62.45;;;0.50;99.90;;;;;;7378300;19;20109;-62
2023/02/15 04:37:25;;;;;;;264.92;58.88;;;0.40;99.90;;;;;;7376333;19;20013;-62
2023/02/15 04:39:51;;;;;;;228.70;58.70;;;0.40;99.90;;;;;;7380211;19;20667;-62
2023/02/15 04:42:18;;;;;;;254.82;63.20;;;0.40;99.90;;;;;;7379253;19;20034;-62
2023/02/15 04:44:44;;;;;;;253.45;58.53;;;0.40;99.90;;;;;;7380029;19;20019;-62
2023/02/15 04:47:11;;;;;;;167.20;47.22;;;0.30;99.90;;;;;;7369980;19;20011;-62
2023/02/15 04:49:37;;;;;;;250.07;56.03;;;0.40;99.90;;;;;;7371297;19;20018;-62
2023/02/15 04:52:03;;;;;;;237.48;51.35;;;0.30;99.90;;;;;;7370856;19;20770;-62
2023/02/15 04:54:30;;;;;;;189.18;47.20;;;0.30;99.90;;;;;;7366624;19;20842;-62
2023/02/15 04:56:56;;;;;;;202.05;50.47;;;0.30;99.90;;;;;;7368961;19;20023;-62
2023/02/15 04:59:23;;;;;;;174.25;49.10;;;0.30;99.90;;;;;;7369455;19;20018;-61
2023/02/15 05:01:49;;;;;;;200.25;52.28;;;0.30;99.90;;;;;;7370356;19;20022;-62
2023/02/15 05:04:15;;;;;;;264.23;62.20;;;0.30;99.90;;;;;;7365994;19;20024;-62
2023/02/15 05:06:42;;;;;;;191.00;50.65;;;0.30;99.90;;;;;;7368218;19;20113;-61
2023/02/15 05:09:08;;;;;;;190.85;52.10;;;0.30;99.90;;;;;;7370221;19;20025;-61
2023/02/15 05:11:34;;;;;;;174.90;51.80;;;0.30;99.90;;;;;;7367375;19;20018;-62
2023/02/15 05:14:01;;;;;;;278.45;61.72;;;0.30;99.90;;;;;;7375942;19;20085;-62
2023/02/15 05:16:27;;;;;;;206.85;55.58;;;0.30;99.90;;;;;;7373395;19;20029;-62
2023/02/15 05:18:54;;;;;;;241.18;59.80;;;0.30;99.90;;;;;;7376048;19;20018;-62
2023/02/15 05:21:22;;;;;;;238.90;62.65;;;0.30;99.90;;;;;;7375360;19;20022;-62
2023/02/15 05:23:48;;;;;;;177.60;55.17;;;0.20;99.90;;;;;;7376930;19;20638;-61
2023/02/15 05:29:06;;;;;;;142.43;49.47;;;0.20;99.90;;;;;;7373872;19;20421;-63
2023/02/15 05:31:34;;;;;;;213.00;58.03;;;0.20;99.90;;;;;;7376562;19;20014;-63
2023/02/15 05:34:01;;;;;;;141.00;51.20;;;0.20;99.90;;;;;;7376599;19;20502;-62
2023/02/15 05:36:28;;;;;;;125.45;49.67;;;0.10;99.90;;;;;;7377238;19;20085;-62
2023/02/15 05:38:56;;;;;;;138.40;49.80;;;0.10;99.90;;;;;;7376624;19;20011;-62
2023/02/15 05:41:22;;;;;;;132.23;52.13;;;0.10;99.90;;;;;;7375071;19;20026;-62
2023/02/15 05:43:48;;;;;;;119.72;45.97;;;0.10;99.90;;;;;;7377222;19;20032;-62
2023/02/15 05:46:15;;;;;;;130.95;46.80;;;0.10;99.90;;;;;;7377191;19;20023;-62
2023/02/15 05:48:44;;;;;;;105.97;46.60;;;0.10;99.90;;;;;;7379490;19;20017;-62
2023/02/15 05:51:13;;;;;;;103.90;45.35;;;0.10;99.90;;;;;;7375858;19;20799;-62
2023/02/15 05:53:41;;;;;;;98.50;43.60;;;0.00;99.90;;;;;;7376965;19;20010;-62
2023/02/15 05:56:09;;;;;;;94.32;44.83;;;0.00;99.90;;;;;;7377202;19;20043;-62
2023/02/15 05:58:38;;;;;;;126.65;48.15;;;0.00;99.90;;;;;;7379756;19;20014;-62
2023/02/15 06:01:23;;;;;;;226.35;58.03;;;0.00;99.90;;;;;;7376423;19;20356;-63
2023/02/15 06:03:50;;;;;;;206.80;59.88;;;0.00;99.90;;;;;;7376905;19;20037;-64
2023/02/15 06:06:16;;;;;;;134.93;49.72;;;0.00;99.90;;;;;;7375974;19;20024;-64
2023/02/15 06:08:43;;;;;;;138.70;52.25;;;0.00;99.90;;;;;;7373714;19;20910;-64
2023/02/15 06:11:12;;;;;;;100.60;46.38;;;0.10;99.90;;;;;;7370426;19;20015;-64
2023/02/15 06:13:38;;;;;;;90.78;46.58;;;0.00;99.90;;;;;;7375117;19;20015;-64
2023/02/15 06:16:06;;;;;;;68.10;46.13;;;0.00;99.90;;;;;;7383874;19;20029;-64
2023/02/15 06:18:33;;;;;;;80.90;47.67;;;0.00;99.90;;;;;;7381144;19;20945;-64
2023/02/15 06:20:59;;;;;;;57.33;45.83;;;0.00;99.90;;;;;;7380514;19;20021;-64
2023/02/15 06:23:27;;;;;;;83.28;46.60;;;0.00;99.90;;;;;;7384724;19;20056;-63
2023/02/15 06:26:02;;;;;;;55.45;45.33;;;0.00;99.90;;;;;;7374873;19;20022;-64
2023/02/15 06:28:30;;;;;;;49.63;40.17;;;0.00;99.90;;;;;;7377659;19;20107;-64
2023/02/15 06:31:03;;;;;;;54.30;44.00;;;0.00;99.90;;;;;;7372507;19;20023;-65
2023/02/15 06:33:33;;;;;;;46.78;41.40;;;0.00;99.90;;;;;;7378647;19;20433;-64
2023/02/15 06:36:00;;;;;;;55.80;43.85;;;-0.10;99.90;;;;;;7376255;19;20031;-63
2023/02/15 06:38:27;;;;;;;52.45;42.20;;;0.00;99.90;;;;;;7378360;19;20122;-63
2023/02/15 06:40:53;;;;;;;51.22;43.00;;;-0.10;99.90;;;;;;7375509;19;20385;-63
2023/02/15 06:43:20;;;;;;;51.17;42.55;;;-0.10;99.90;;;;;;7380860;19;20017;-63
2023/02/15 06:45:46;;;;;;;52.70;42.90;;;0.00;99.90;;;;;;7376435;19;20078;-63
2023/02/15 06:48:12;;;;;;;50.63;44.45;;;0.00;99.90;;;;;;7379295;19;20362;-64
2023/02/15 06:50:39;;;;;;;54.75;42.85;;;0.10;99.90;;;;;;7375081;19;20015;-63
2023/02/15 06:53:05;;;;;;;52.22;43.58;;;0.00;99.90;;;;;;7376382;19;20026;-64
2023/02/15 06:55:32;;;;;;;50.30;41.92;;;0.00;99.90;;;;;;7374093;19;20381;-64
2023/02/15 06:58:01;;;;;;;51.03;41.35;;;0.00;99.90;;;;;;7377800;19;20010;-64
2023/02/15 07:00:27;;;;;;;52.28;41.47;;;0.10;99.90;;;;;;7375948;19;20026;-64
2023/02/15 07:02:55;;;;;;;50.55;40.42;;;0.10;99.90;;;;;;7375073;19;20029;-64
2023/02/15 07:05:22;;;;;;;53.40;41.50;;;0.10;99.90;;;;;;7377397;19;20018;-64
2023/02/15 07:07:49;;;;;;;50.22;37.92;;;0.10;99.90;;;;;;7377409;19;20029;-64
2023/02/15 07:10:15;;;;;;;48.35;37.97;;;0.10;99.90;;;;;;7376577;19;20493;-64
2023/02/15 07:12:45;;;;;;;50.97;39.40;;;0.10;99.90;;;;;;7374527;19;20022;-64
2023/02/15 07:15:15;;;;;;;52.72;40.47;;;0.20;99.90;;;;;;7375243;19;20019;-64
2023/02/15 07:17:42;;;;;;;49.22;37.90;;;0.20;99.90;;;;;;7374818;19;20025;-64
2023/02/15 07:20:18;;;;;;;54.75;40.20;;;0.30;99.90;;;;;;7375296;19;20018;-64
2023/02/15 07:22:45;;;;;;;56.28;42.38;;;0.30;99.90;;;;;;7373527;19;20040;-64
2023/02/15 07:25:13;;;;;;;72.07;45.63;;;0.40;99.90;;;;;;7372538;19;20057;-64
2023/02/15 07:27:40;;;;;;;73.13;49.78;;;0.60;99.90;;;;;;7371237;19;20033;-64
2023/02/15 07:30:11;;;;;;;81.78;48.42;;;0.70;99.90;;;;;;7378061;19;20015;-64
2023/02/15 07:33:22;;;;;;;76.90;49.28;;;0.80;99.90;;;;;;7370814;19;20018;-64
2023/02/15 07:35:27;;;;;;;80.90;48.55;;;0.90;99.90;;;;;;7375187;19;20025;-64
2023/02/15 07:37:54;;;;;;;81.78;47.83;;;1.10;99.90;;;;;;7376119;19;20053;-64
2023/02/15 07:40:23;;;;;;;80.65;51.47;;;1.20;99.90;;;;;;7375645;19;20029;-64
2023/02/15 07:43:01;;;;;;;79.47;49.42;;;1.30;99.90;;;;;;7367473;19;20017;-64
2023/02/15 07:45:27;;;;;;;74.85;48.97;;;1.50;99.90;;;;;;7369986;19;20041;-64
2023/02/15 07:48:02;;;;;;;74.18;48.10;;;1.60;99.90;;;;;;7367299;19;20106;-64
2023/02/15 07:50:32;;;;;;;72.20;46.67;;;1.70;99.90;;;;;;7375169;19;20018;-64
2023/02/15 07:53:03;;;;;;;72.68;46.25;;;1.80;99.90;;;;;;7368658;19;20053;-64
2023/02/15 07:55:33;;;;;;;70.22;45.60;;;1.80;99.90;;;;;;7375302;19;20022;-64
2023/02/15 07:57:59;;;;;;;71.32;44.85;;;2.00;99.90;;;;;;7371964;19;20369;-64
2023/02/15 08:00:56;;;;;;;65.22;44.50;;;2.00;99.90;;;;;;7374191;19;20026;-64
2023/02/15 08:03:28;;;;;;;64.40;43.00;;;2.10;99.90;;;;;;7366266;19;20014;-65
2023/02/15 08:05:59;;;;;;;65.68;44.38;;;2.20;99.90;;;;;;7372013;19;20037;-63
2023/02/15 08:08:37;;;;;;;59.25;41.22;;;2.60;99.90;;;;;;7374041;19;20033;-63
2023/02/15 08:11:25;;;;;;;63.63;42.80;;;2.80;99.90;;;;;;7376660;19;20486;-63
2023/02/15 08:13:59;;;;;;;60.95;41.47;;;3.30;99.90;;;;;;7377559;19;20018;-64
2023/02/15 08:16:37;;;;;;;54.42;37.55;;;3.70;99.90;;;;;;7379362;19;20496;-64
2023/02/15 08:19:14;;;;;;;54.90;38.58;;;3.90;99.90;;;;;;7377721;19;20022;-64
2023/02/15 08:21:43;;;;;;;49.25;37.70;;;4.20;99.90;;;;;;7373768;19;20047;-64
2023/02/15 08:24:11;;;;;;;47.05;34.97;;;4.60;99.90;;;;;;7378625;19;20053;-64
2023/02/15 08:26:39;;;;;;;49.00;35.08;;;4.80;99.90;;;;;;7374519;19;20022;-65
2023/02/15 08:29:06;;;;;;;48.40;34.08;;;5.10;99.90;;;;;;7372129;19;20086;-65
2023/02/15 08:31:37;;;;;;;45.43;34.93;;;5.30;99.90;;;;;;7372011;19;20753;-65
2023/02/15 08:34:04;;;;;;;42.70;32.03;;;5.50;99.90;;;;;;7374413;19;20363;-65
2023/02/15 08:36:31;;;;;;;42.25;32.60;;;5.70;99.90;;;;;;7374906;19;20017;-65
2023/02/15 08:39:02;;;;;;;41.50;32.42;;;6.00;99.90;;;;;;7376064;19;20830;-66
2023/02/15 08:41:31;;;;;;;43.53;34.45;;;6.20;99.90;;;;;;7372030;19;20501;-66
2023/02/15 08:44:00;;;;;;;42.13;34.20;;;6.80;99.90;;;;;;7376326;19;20030;-66
2023/02/15 08:46:28;;;;;;;37.50;32.63;;;7.00;99.90;;;;;;7378895;19;20388;-65
2023/02/15 08:49:03;;;;;;;35.65;30.73;;;7.20;99.90;;;;;;7378900;19;20019;-65
2023/02/15 08:51:35;;;;;;;34.55;30.25;;;7.40;99.90;;;;;;7377186;19;20034;-65
2023/02/15 08:54:05;;;;;;;39.30;30.90;;;8.00;99.90;;;;;;7378453;19;20042;-65
2023/02/15 08:56:40;;;;;;;36.38;29.20;;;8.00;99.90;;;;;;7377423;19;20810;-65
2023/02/15 08:59:10;;;;;;;36.50;30.13;;;8.40;99.90;;;;;;7377037;19;20423;-65
2023/02/15 09:01:37;;;;;;;35.80;29.63;;;8.70;99.90;;;;;;7373054;19;20061;-66
2023/02/15 09:04:08;;;;;;;34.83;29.50;;;8.80;99.90;;;;;;7375387;19;20572;-66
2023/02/15 09:06:35;;;;;;;40.58;31.63;;;9.00;99.90;;;;;;7378166;19;20025;-66
2023/02/15 09:09:03;;;;;;;35.95;30.65;;;9.30;99.90;;;;;;7375267;19;20041;-66
2023/02/15 09:11:33;;;;;;;35.40;29.08;;;9.50;99.90;;;;;;7377135;19;20767;-67
2023/02/15 09:14:03;;;;;;;34.50;30.38;;;9.60;99.90;;;;;;7373659;19;20058;-67
2023/02/15 09:16:32;;;;;;;36.28;31.38;;;9.70;99.90;;;;;;7375856;19;20015;-66
2023/02/15 09:19:04;;;;;;;35.67;30.75;;;10.20;99.90;;;;;;7376611;19;21200;-67
2023/02/15 09:21:32;;;;;;;35.00;30.38;;;10.50;99.90;;;;;;7375971;19;20355;-67
2023/02/15 09:24:01;;;;;;;33.08;29.48;;;10.80;99.90;;;;;;7376238;19;20055;-67
2023/02/15 09:26:30;;;;;;;36.80;31.20;;;10.70;99.90;;;;;;7377173;19;20383;-67
2023/02/15 09:29:03;;;;;;;35.38;29.10;;;10.60;99.90;;;;;;7374844;19;20019;-67
2023/02/15 09:31:32;;;;;;;36.20;30.00;;;10.90;99.90;;;;;;7371791;19;20512;-67
2023/02/15 09:34:02;;;;;;;33.45;29.90;;;11.10;99.90;;;;;;7374199;19;20663;-67
2023/02/15 09:36:35;;;;;;;;;;;11.40;99.90;;;;;;7375427;19;20564;-68
2023/02/15 09:39:10;;;;;;;34.50;29.67;;;11.60;99.90;;;;;;7374868;19;19986;-65
2023/02/15 09:41:55;;;;;;;32.90;29.23;;;12.00;99.90;;;;;;7372506;19;20022;-68
2023/02/15 09:44:47;;;;;;;35.28;29.98;;;11.80;99.90;;;;;;7374400;19;20026;-65
2023/02/15 09:47:30;;;;;;;35.78;30.33;;;12.10;99.90;;;;;;7373043;19;20050;-65
2023/02/15 09:50:34;;;;;;;35.63;31.73;;;12.20;99.90;;;;;;7373400;19;20776;-65
2023/02/15 09:53:52;;;;;;;36.15;30.55;;;12.10;99.90;;;;;;7371783;19;20018;-65
2023/02/15 09:56:29;;;;;;;37.65;30.83;;;12.20;99.90;;;;;;7375044;19;20453;-65
2023/02/15 09:59:15;;;;;;;34.47;30.83;;;12.30;99.90;;;;;;7377371;19;20011;-64
2023/02/15 10:01:50;;;;;;;35.83;31.63;;;12.40;99.90;;;;;;7374705;19;20035;-65
2023/02/15 10:04:35;;;;;;;36.67;32.80;;;12.00;99.90;;;;;;7375427;19;20378;-65
2023/02/15 10:07:12;;;;;;;38.90;34.50;;;11.90;99.90;;;;;;7375200;19;20184;-68
2023/02/15 10:09:38;;;;;;;37.60;33.15;;;11.80;99.90;;;;;;7372749;19;20018;-65
2023/02/15 10:12:30;;;;;;;39.60;32.97;;;11.70;99.90;;;;;;7377948;19;20026;-64
2023/02/15 10:15:16;;;;;;;37.20;32.92;;;11.40;99.90;;;;;;7365945;19;20026;-65
2023/02/15 10:18:00;;;;;;;38.80;34.47;;;11.30;99.90;;;;;;7368683;19;20600;-65
2023/02/15 10:20:51;;;;;;;39.60;33.55;;;11.50;99.90;;;;;;7370650;19;20051;-65
2023/02/15 10:23:46;;;;;;;37.97;33.78;;;11.90;99.90;;;;;;7367748;19;20034;-65
2023/02/15 10:26:35;;;;;;;37.42;33.25;;;12.30;99.90;;;;;;7365813;19;20036;-65
2023/02/15 10:29:15;;;;;;;38.83;32.95;;;12.50;99.90;;;;;;7369529;19;20025;-65
2023/02/15 10:31:47;;;;;;;38.90;34.53;;;12.70;99.90;;;;;;7366649;19;20017;-65
2023/02/15 10:34:16;;;;;;;37.58;33.42;;;12.60;99.90;;;;;;7370094;19;20018;-66
2023/02/15 10:36:51;;;;;;;39.28;34.47;;;12.80;99.90;;;;;;7366463;19;20031;-68
2023/02/15 10:39:24;;;;;;;38.95;33.33;;;13.10;99.90;;;;;;7368533;19;20663;-67
2023/02/15 10:41:59;;;;;;;38.95;34.75;;;13.40;99.90;;;;;;7370682;19;20415;-66
2023/02/15 10:44:41;;;;;;;37.60;33.33;;;13.30;99.90;;;;;;7374519;19;20094;-65
2023/02/15 10:47:26;;;;;;;;;;;13.30;99.90;;;;;;7372960;19;20023;-66
2023/02/15 10:50:21;;;;;;;37.42;32.92;;;13.30;99.90;;;;;;7370725;19;19926;-65
2023/02/15 10:53:15;;;;;;;37.92;33.60;;;13.80;99.90;;;;;;7367676;19;20094;-65
2023/02/15 10:56:20;;;;;;;39.05;33.83;;;14.30;99.90;;;;;;7367866;19;20018;-66
2023/02/15 10:59:04;;;;;;;36.28;32.53;;;14.40;99.90;;;;;;7365395;19;20074;-66
2023/02/15 11:01:49;;;;;;;38.55;33.88;;;14.40;99.90;;;;;;7375123;19;20022;-66
2023/02/15 11:04:53;;;;;;;37.80;33.80;;;14.90;99.90;;;;;;7374035;19;20097;-66
2023/02/15 11:07:34;;;;;;;38.85;33.75;;;14.90;99.90;;;;;;7378178;19;20783;-66
2023/02/15 11:10:32;;;;;;;39.50;35.20;;;14.60;99.90;;;;;;7375548;19;20015;-67
2023/02/15 11:13:05;;;;;;;38.78;34.60;;;14.90;99.90;;;;;;7376397;19;20014;-66
2023/02/15 11:15:45;;;;;;;40.15;35.05;;;15.10;99.90;;;;;;7379573;19;20015;-66
2023/02/15 11:18:40;;;;;;;37.67;33.63;;;15.20;99.90;;;;;;7374976;19;20023;-65
2023/02/15 11:21:32;;;;;;;38.33;34.20;;;15.80;99.90;;;;;;7374424;19;20350;-66
2023/02/15 11:24:01;;;;;;;38.95;33.83;;;16.00;99.90;;;;;;7376509;19;20018;-69
2023/02/15 11:26:39;;;;;;;48.78;43.63;;;16.30;99.90;;;;;;7370978;19;20023;-54
2023/02/15 11:29:27;;;;;;;40.40;34.90;;;16.60;99.90;;;;;;7369148;19;20526;-56
2023/02/15 11:31:57;;;;;;;41.65;37.13;;;16.10;99.90;;;;;;7370353;19;20026;-56
2023/02/15 11:34:31;;;;;;;40.05;35.75;;;16.80;99.90;;;;;;7367664;19;20049;-57
2023/02/15 11:37:08;;;;;;;52.53;47.03;;;16.70;97.70;;;;;;7371690;19;20381;-57
2023/02/15 11:39:35;;;;;;;43.50;39.00;;;16.90;99.90;;;;;;7369053;19;20022;-57
2023/02/15 11:42:10;;;;;;;42.03;36.45;;;16.60;99.90;;;;;;7367180;19;20039;-57
2023/02/15 11:45:11;;;;;;;50.05;44.80;;;16.50;96.90;;;;;;7370956;19;20020;-56
2023/02/15 11:47:38;;;;;;;40.78;35.63;;;16.80;99.10;;;;;;7372304;19;20059;-57
2023/02/15 11:50:18;;;;;;;40.78;36.38;;;17.20;99.90;;;;;;7372463;19;20560;-58
2023/02/15 11:52:52;;;;;;;38.25;34.08;;;17.20;93.70;;;;;;7374682;19;20061;-58
2023/02/15 11:55:22;;;;;;;52.00;46.13;;;17.10;97.30;;;;;;7371680;19;20018;-57
2023/02/15 11:57:59;;;;;;;43.67;38.35;;;17.40;84.00;;;;;;7375395;19;21578;-57
2023/02/15 12:00:44;;;;;;;49.08;43.72;;;18.00;80.40;;;;;;7372639;19;20109;-57
2023/02/15 12:03:19;;;;;;;38.22;34.10;;;17.20;90.70;;;;;;7371053;19;20014;-58
2023/02/15 12:05:49;;;;;;;40.17;35.85;;;17.20;91.50;;;;;;7370178;19;20020;-57
2023/02/15 12:08:22;;;;;;;41.20;36.25;;;17.30;93.90;;;;;;7373050;19;20014;-58
2023/02/15 12:11:07;;;;;;;38.28;34.17;;;17.10;93.00;;;;;;7369024;19;20090;-57
2023/02/15 12:13:33;;;;;;;40.83;35.72;;;16.60;93.60;;;;;;7370460;19;20030;-58
2023/02/15 12:16:07;;;;;;;39.85;35.15;;;16.80;97.30;;;;;;7366023;19;20018;-57
2023/02/15 12:18:39;;;;;;;40.50;36.00;;;16.40;97.40;;;;;;7368511;19;20685;-57
2023/02/15 12:21:33;;;;;;;42.28;35.78;;;16.80;99.10;;;;;;7369521;19;20126;-57
2023/02/15 12:24:17;;;;;;;38.92;34.00;;;17.80;82.00;;;;;;7368974;19;20504;-57
2023/02/15 12:26:44;;;;;;;37.70;32.92;;;18.10;84.10;;;;;;7367536;19;20022;-56
2023/02/15 12:29:20;;;;;;;40.70;34.83;;;18.20;80.50;;;;;;7367627;19;20358;-57
2023/02/15 12:31:51;;;;;;;36.78;32.65;;;18.20;69.20;;;;;;7372335;19;20481;-57
2023/02/15 12:34:24;;;;;;;37.45;32.72;;;18.90;73.00;;;;;;7371569;19;20026;-56
2023/02/15 12:36:57;;;;;;;40.35;32.47;;;19.30;68.20;;;;;;7374535;19;20485;-56
2023/02/15 12:39:30;;;;;;;37.85;33.65;;;19.50;65.70;;;;;;7374015;19;20019;-56
2023/02/15 12:42:28;;;;;;;37.35;31.70;;;18.70;66.40;;;;;;7372691;19;20023;-56
2023/02/15 12:45:19;;;;;;;38.47;31.17;;;18.10;66.60;;;;;;7369578;19;20759;-56
2023/02/15 12:47:45;;;;;;;38.70;31.65;;;18.00;67.50;;;;;;7371168;19;20022;-56
2023/02/15 12:50:27;;;;;;;37.03;31.40;;;17.60;68.90;;;;;;7369988;19;20014;-56
2023/02/15 12:53:06;;;;;;;;;;;17.50;72.00;;;;;;7365621;19;20021;-55
2023/02/15 12:55:32;;;;;;;38.67;31.00;;;17.80;82.20;;;;;;7368426;19;19929;-56
2023/02/15 12:58:06;;;;;;;47.60;40.20;;;18.30;70.90;;;;;;7358205;19;20728;-56
2023/02/15 13:00:34;;;;;;;46.13;35.58;;;18.20;68.60;;;;;;7370195;19;20435;-56
2023/02/15 13:03:02;;;;;;;36.95;30.98;;;17.80;67.10;;;;;;7361907;19;20026;-56
2023/02/15 13:05:38;;;;;;;39.20;33.55;;;17.20;73.90;;;;;;7369297;19;20015;-56
2023/02/15 13:08:21;;;;;;;38.65;31.65;;;17.20;74.00;;;;;;7368361;19;20109;-57
2023/02/15 13:11:01;;;;;;;39.08;33.13;;;17.10;79.00;;;;;;7369133;19;20022;-65
2023/02/15 13:13:56;;;;;;;36.58;31.05;;;17.00;80.00;;;;;;7373876;19;20029;-65
2023/02/15 13:16:31;;;;;;;37.38;31.73;;;16.50;88.80;;;;;;7370693;19;20493;-65
2023/02/15 13:19:16;;;;;;;36.45;31.23;;;16.20;93.10;;;;;;7370174;19;20664;-65
2023/02/15 13:22:07;;;;;;;36.88;32.35;;;15.90;95.30;;;;;;7372652;19;20018;-65
2023/02/15 13:24:48;;;;;;;38.85;33.42;;;15.60;98.90;;;;;;7372050;19;20024;-65
2023/02/15 13:27:19;;;;;;;39.47;31.67;;;15.10;99.90;;;;;;7369410;19;20019;-65
2023/02/15 13:29:58;;;;;;;39.67;32.70;;;14.70;99.90;;;;;;7374432;19;20014;-65